createdAt,value
2019-02-05T00:02:21.834Z,72.80
2019-02-05T00:04:53.009Z,72.80
2019-02-05T00:07:23.331Z,72.40
2019-02-05T00:09:55.672Z,71.90
2019-02-05T00:12:25.997Z,72.10
2019-02-05T00:14:56.394Z,72.20
2019-02-05T00:17:26.836Z,71.90
2019-02-05T00:19:57.142Z,72.00
2019-02-05T00:22:27.745Z,72.00
2019-02-05T00:24:58.038Z,72.40
2019-02-05T00:27:28.491Z,72.30
2019-02-05T00:29:58.867Z,72.40
2019-02-05T00:32:29.186Z,72.50
2019-02-05T00:34:59.496Z,71.80
2019-02-05T00:37:29.830Z,72.50
2019-02-05T00:40:00.198Z,72.40
2019-02-05T00:42:30.465Z,72.20
2019-02-05T00:45:00.784Z,72.40
2019-02-05T00:47:32.321Z,72.40
2019-02-05T00:50:03.055Z,72.80
2019-02-05T00:52:33.451Z,73.10
2019-02-05T00:55:03.867Z,72.90
2019-02-05T00:57:34.244Z,72.70
2019-02-05T01:00:07.573Z,72.80
2019-02-05T01:02:38.094Z,73.20
2019-02-05T01:05:08.591Z,73.50
2019-02-05T01:07:38.961Z,73.40
2019-02-05T01:10:09.478Z,74.20
2019-02-05T01:12:40.800Z,74.40
2019-02-05T01:15:13.649Z,73.90
2019-02-05T01:17:44.073Z,74.00
2019-02-05T01:20:16.623Z,74.40
2019-02-05T01:22:47.268Z,74.20
2019-02-05T01:25:18.411Z,74.30
2019-02-05T01:27:49.244Z,74.00
2019-02-05T01:30:21.966Z,74.20
2019-02-05T01:32:52.632Z,73.90
2019-02-05T01:35:24.693Z,74.40
2019-02-05T01:37:55.022Z,74.30
2019-02-05T01:40:26.244Z,74.00
2019-02-05T01:42:57.873Z,74.70
2019-02-05T01:45:28.173Z,74.60
2019-02-05T01:47:58.513Z,74.10
2019-02-05T01:50:31.103Z,74.60
2019-02-05T01:53:01.230Z,74.80
2019-02-05T01:55:31.525Z,74.60
2019-02-05T01:58:01.868Z,75.00
2019-02-05T02:00:35.457Z,75.40
2019-02-05T02:03:06.554Z,75.40
2019-02-05T02:05:36.852Z,76.20
2019-02-05T02:08:11.776Z,75.30
2019-02-05T02:10:42.218Z,75.30
2019-02-05T02:13:12.620Z,75.80
2019-02-05T02:15:42.953Z,75.90
2019-02-05T02:18:13.321Z,75.60
2019-02-05T02:20:43.760Z,75.80
2019-02-05T02:23:17.264Z,75.90
2019-02-05T02:25:47.723Z,76.80
2019-02-05T02:28:18.093Z,77.10
2019-02-05T02:30:48.605Z,76.00
2019-02-05T02:33:19.426Z,76.60
2019-02-05T02:35:50.121Z,77.60
2019-02-05T02:38:20.949Z,77.30
2019-02-05T02:40:52.697Z,77.40
2019-02-05T02:43:23.111Z,78.00
2019-02-05T02:45:55.381Z,78.30
2019-02-05T02:48:27.339Z,79.20
2019-02-05T02:50:57.667Z,79.40
2019-02-05T02:53:28.070Z,79.80
2019-02-05T02:55:58.358Z,79.70
2019-02-05T02:58:28.888Z,79.30
2019-02-05T03:00:59.186Z,80.30
2019-02-05T03:03:29.551Z,80.20
2019-02-05T03:05:59.850Z,79.70
2019-02-05T03:08:31.010Z,80.00
2019-02-05T03:11:01.323Z,80.20
2019-02-05T03:13:31.809Z,80.30
2019-02-05T03:16:02.121Z,80.20
2019-02-05T03:18:32.473Z,80.60
2019-02-05T03:21:02.874Z,80.60
2019-02-05T03:23:33.197Z,79.70
2019-02-05T03:26:03.484Z,80.30
2019-02-05T03:28:33.818Z,80.60
2019-02-05T03:31:04.939Z,81.40
2019-02-05T03:33:35.267Z,80.80
2019-02-05T03:36:05.853Z,82.50
2019-02-05T03:38:36.214Z,81.80
2019-02-05T03:41:10.120Z,82.20
2019-02-05T03:43:42.478Z,81.90
2019-02-05T03:46:14.255Z,82.50
2019-02-05T03:48:46.628Z,82.20
2019-02-05T03:51:50.019Z,81.80
2019-02-05T03:54:51.977Z,81.50
2019-02-05T03:58:06.025Z,81.70
2019-02-05T04:01:35.599Z,81.40
2019-02-05T04:04:32.502Z,82.30
2019-02-05T04:07:55.906Z,82.50
2019-02-05T04:11:05.537Z,82.30
2019-02-05T04:14:15.591Z,82.30
2019-02-05T04:17:06.682Z,82.50
2019-02-05T04:20:17.077Z,83.30
2019-02-05T04:23:19.948Z,83.00
2019-02-05T04:26:46.522Z,82.90
2019-02-05T04:30:04.305Z,83.60
2019-02-05T04:33:03.160Z,83.10
2019-02-05T04:36:09.185Z,83.90
2019-02-05T04:39:11.341Z,83.50
2019-02-05T04:42:06.088Z,83.90
2019-02-05T04:45:00.521Z,85.00
2019-02-05T04:48:30.430Z,85.00
2019-02-05T04:51:36.674Z,84.80
2019-02-05T04:54:32.209Z,85.80
2019-02-05T04:57:40.725Z,85.90
2019-02-05T05:00:50.472Z,85.90
2019-02-05T05:03:58.662Z,86.00
2019-02-05T05:07:08.920Z,85.60
2019-02-05T05:09:57.279Z,85.20
2019-02-05T05:12:29.594Z,85.40
2019-02-05T05:15:00.739Z,85.20
2019-02-05T05:17:32.793Z,85.30
2019-02-05T05:20:03.135Z,85.90
2019-02-05T05:22:33.537Z,84.60
2019-02-05T05:25:08.012Z,84.60
2019-02-05T05:27:38.603Z,85.00
2019-02-05T05:30:13.216Z,84.60
2019-02-05T05:32:45.887Z,84.30
2019-02-05T05:35:17.361Z,84.50
2019-02-05T05:37:48.220Z,84.20
2019-02-05T05:40:18.682Z,85.40
2019-02-05T05:42:49.472Z,84.80
2019-02-05T05:45:19.957Z,85.20
2019-02-05T05:47:50.748Z,85.10
2019-02-05T05:50:21.815Z,85.60
2019-02-05T05:52:52.904Z,86.30
2019-02-05T05:55:23.346Z,86.10
2019-02-05T05:57:54.081Z,86.50
2019-02-05T06:00:24.472Z,86.00
2019-02-05T06:02:54.837Z,86.80
2019-02-05T06:05:25.279Z,88.30
2019-02-05T06:07:55.877Z,89.30
2019-02-05T06:10:26.253Z,87.80
2019-02-05T06:12:56.570Z,87.50
2019-02-05T06:15:29.357Z,86.10
2019-02-05T06:17:59.660Z,86.00
2019-02-05T06:20:30.923Z,86.10
2019-02-05T06:23:01.225Z,86.30
2019-02-05T06:25:31.578Z,86.50
2019-02-05T06:28:01.892Z,87.10
2019-02-05T06:30:32.252Z,86.90
2019-02-05T06:33:02.584Z,86.80
2019-02-05T06:35:33.310Z,86.80
2019-02-05T06:38:03.654Z,86.60
2019-02-05T06:40:33.959Z,86.30
2019-02-05T06:43:04.375Z,87.10
2019-02-05T06:45:34.701Z,86.30
2019-02-05T06:48:05.191Z,86.40
2019-02-05T06:50:35.918Z,86.60
2019-02-05T06:53:06.294Z,86.90
2019-02-05T06:55:36.625Z,86.80
2019-02-05T06:58:07.186Z,86.90
2019-02-05T07:00:37.525Z,87.20
2019-02-05T07:03:07.966Z,87.20
2019-02-05T07:05:38.573Z,87.70
2019-02-05T07:08:08.925Z,87.60
2019-02-05T07:10:39.228Z,87.70
2019-02-05T07:13:09.958Z,87.90
2019-02-05T07:15:40.780Z,87.20
2019-02-05T07:18:13.505Z,87.40
2019-02-05T07:20:43.830Z,87.20
2019-02-05T07:23:14.208Z,87.30
2019-02-05T07:25:44.608Z,88.50
2019-02-05T07:28:14.922Z,87.50
2019-02-05T07:30:45.248Z,87.30
2019-02-05T07:33:15.557Z,87.80
2019-02-05T07:35:45.890Z,87.60
2019-02-05T07:38:16.291Z,87.60
2019-02-05T07:40:46.623Z,88.40
2019-02-05T07:43:16.921Z,88.30
2019-02-05T07:45:47.247Z,88.00
2019-02-05T07:48:19.242Z,88.00
2019-02-05T07:50:49.876Z,87.80
2019-02-05T07:53:20.314Z,87.30
2019-02-05T07:55:50.664Z,88.80
2019-02-05T07:58:21.032Z,88.40
2019-02-05T08:00:51.686Z,88.70
2019-02-05T08:03:22.175Z,88.50
2019-02-05T08:05:53.280Z,88.80
2019-02-05T08:08:23.850Z,88.90
2019-02-05T08:10:54.351Z,88.40
2019-02-05T08:13:24.706Z,88.40
2019-02-05T08:15:55.370Z,87.70
2019-02-05T08:18:25.669Z,87.90
2019-02-05T08:20:56.105Z,87.80
2019-02-05T08:23:26.893Z,87.70
2019-02-05T08:25:57.239Z,88.20
2019-02-05T08:28:27.574Z,87.80
2019-02-05T08:30:58.192Z,87.60
2019-02-05T08:33:28.520Z,87.80
2019-02-05T08:35:58.873Z,87.20
2019-02-05T08:38:29.488Z,86.80
2019-02-05T08:40:59.902Z,86.60
2019-02-05T08:43:31.238Z,86.40
2019-02-05T08:46:01.613Z,86.10
2019-02-05T08:48:32.104Z,86.10
2019-02-05T08:51:02.441Z,85.50
2019-02-05T08:53:33.313Z,85.30
2019-02-05T08:56:03.665Z,84.90
2019-02-05T08:58:34.002Z,84.80
2019-02-05T09:01:04.849Z,84.60
2019-02-05T09:03:35.231Z,84.30
2019-02-05T09:06:05.860Z,83.50
2019-02-05T09:08:36.667Z,82.80
2019-02-05T09:11:06.998Z,82.30
2019-02-05T09:16:13.744Z,82.50
2019-02-05T09:18:44.121Z,81.20
2019-02-05T09:21:14.450Z,80.50
2019-02-05T09:23:44.772Z,81.20
2019-02-05T09:26:15.106Z,79.90
2019-02-05T09:28:45.404Z,79.50
2019-02-05T09:31:15.757Z,79.80
2019-02-05T09:33:46.155Z,78.20
2019-02-05T09:36:20.989Z,78.40
2019-02-05T09:38:48.469Z,78.20
2019-02-05T09:41:20.146Z,77.70
2019-02-05T09:43:53.422Z,77.50
2019-02-05T09:46:23.773Z,77.20
2019-02-05T09:48:55.340Z,76.90
2019-02-05T09:51:26.290Z,76.50
2019-02-05T09:53:56.576Z,76.20
2019-02-05T09:56:26.922Z,75.80
2019-02-05T09:58:57.211Z,75.00
2019-02-05T10:01:28.631Z,75.50
2019-02-05T10:03:58.929Z,74.60
2019-02-05T10:06:29.626Z,74.80
2019-02-05T10:08:59.914Z,75.00
2019-02-05T10:11:30.528Z,74.50
2019-02-05T10:14:00.834Z,74.20
2019-02-05T10:16:31.162Z,73.50
2019-02-05T10:19:01.470Z,73.70
2019-02-05T10:21:32.323Z,73.10
2019-02-05T10:24:02.625Z,72.50
2019-02-05T10:26:32.977Z,72.80
2019-02-05T10:29:03.463Z,72.10
2019-02-05T10:31:33.849Z,71.80
2019-02-05T10:34:04.544Z,71.70
2019-02-05T10:36:34.858Z,71.70
2019-02-05T10:39:09.502Z,72.90
2019-02-05T10:41:39.825Z,71.70
2019-02-05T10:44:10.121Z,69.90
2019-02-05T10:46:40.466Z,69.80
2019-02-05T10:49:10.857Z,68.70
2019-02-05T10:51:41.182Z,66.30
2019-02-05T10:54:11.477Z,65.40
2019-02-05T10:56:45.351Z,61.50
2019-02-05T10:59:15.649Z,61.30
2019-02-05T11:01:45.996Z,57.30
2019-02-05T11:04:16.755Z,55.20
2019-02-05T11:06:47.239Z,54.50
2019-02-05T11:09:18.026Z,54.90
2019-02-05T11:11:48.402Z,55.00
2019-02-05T11:14:18.882Z,50.90
2019-02-05T11:16:49.449Z,50.70
2019-02-05T11:19:20.450Z,49.30
2019-02-05T11:21:52.230Z,50.40
2019-02-05T11:24:22.619Z,49.70
2019-02-05T11:26:53.695Z,48.20
2019-02-05T11:29:24.020Z,45.80
2019-02-05T11:31:54.594Z,45.90
2019-02-05T11:34:25.342Z,44.90
2019-02-05T11:36:56.028Z,45.00
2019-02-05T11:39:26.349Z,43.70
2019-02-05T11:41:56.739Z,42.40
2019-02-05T11:44:27.158Z,41.60
2019-02-05T11:46:57.621Z,40.30
2019-02-05T11:49:28.285Z,41.50
2019-02-05T11:51:58.685Z,40.50
2019-02-05T11:54:28.998Z,39.70
2019-02-05T11:56:59.418Z,38.50
2019-02-05T11:59:30.649Z,37.80
2019-02-05T12:02:01.046Z,37.60
2019-02-05T12:04:32.053Z,36.70
2019-02-05T12:07:02.431Z,36.10
2019-02-05T12:09:32.824Z,36.60
2019-02-05T12:15:15.619Z,35.70
2019-02-05T12:17:47.786Z,34.10
2019-02-05T12:20:19.703Z,33.70
2019-02-05T12:22:50.262Z,33.30
2019-02-05T12:25:21.098Z,32.80
2019-02-05T12:27:51.438Z,32.40
2019-02-05T12:30:43.971Z,32.60
2019-02-05T12:33:05.231Z,32.30
2019-02-05T12:35:36.736Z,31.90
2019-02-05T12:38:07.693Z,31.60
2019-02-05T12:40:38.011Z,32.00
2019-02-05T12:43:08.870Z,31.00
2019-02-05T12:45:39.436Z,30.00
2019-02-05T12:48:09.926Z,30.10
2019-02-05T12:50:40.243Z,29.50
2019-02-05T12:53:10.686Z,29.70
2019-02-05T12:55:41.084Z,29.80
2019-02-05T12:58:11.462Z,29.00
2019-02-05T13:00:56.584Z,28.90
2019-02-05T13:03:18.928Z,28.10
2019-02-05T13:05:49.234Z,28.70
2019-02-05T13:08:19.587Z,28.40
2019-02-05T13:10:51.794Z,28.30
2019-02-05T13:13:22.125Z,28.10
2019-02-05T13:15:52.433Z,27.90
2019-02-05T13:18:23.446Z,26.60
2019-02-05T13:20:53.893Z,27.10
2019-02-05T13:23:24.305Z,26.80
2019-02-05T13:25:54.685Z,27.40
2019-02-05T13:28:25.044Z,26.30
2019-02-05T13:30:55.445Z,26.60
2019-02-05T13:33:25.974Z,27.20
2019-02-05T13:35:56.428Z,27.00
2019-02-05T13:38:26.928Z,27.20
2019-02-05T13:40:58.555Z,27.00
2019-02-05T13:43:28.968Z,27.10
2019-02-05T13:45:59.667Z,26.20
2019-02-05T13:48:30.049Z,27.20
2019-02-05T13:51:00.376Z,27.40
2019-02-05T13:53:30.816Z,26.60
2019-02-05T13:56:01.156Z,26.40
2019-02-05T13:58:31.794Z,26.30
2019-02-05T14:01:02.142Z,26.30
2019-02-05T14:03:32.493Z,25.80
2019-02-05T14:06:02.816Z,25.60
2019-02-05T14:08:33.273Z,25.60
2019-02-05T14:11:04.769Z,25.40
2019-02-05T14:13:35.171Z,26.20
2019-02-05T14:16:05.793Z,26.60
2019-02-05T14:18:36.219Z,26.70
2019-02-05T14:21:06.716Z,26.70
2019-02-05T14:23:37.208Z,26.90
2019-02-05T14:26:07.531Z,27.00
2019-02-05T14:28:37.963Z,26.60
2019-02-05T14:31:08.293Z,26.60
2019-02-05T14:33:38.806Z,26.20
2019-02-05T14:36:09.162Z,27.10
2019-02-05T14:38:39.600Z,27.20
2019-02-05T14:41:10.226Z,27.90
2019-02-05T14:43:40.682Z,28.10
2019-02-05T14:46:13.109Z,28.20
2019-02-05T14:48:43.124Z,28.30
2019-02-05T14:51:13.787Z,28.20
2019-02-05T14:53:44.495Z,28.30
2019-02-05T14:56:14.850Z,28.00
2019-02-05T14:58:45.242Z,28.40
2019-02-05T15:01:15.636Z,28.50
2019-02-05T15:03:46.035Z,28.70
2019-02-05T15:06:16.429Z,28.70
2019-02-05T15:08:46.773Z,28.90
2019-02-05T15:11:17.145Z,29.20
2019-02-05T15:13:47.479Z,29.20
2019-02-05T15:16:17.939Z,29.20
2019-02-05T15:18:48.441Z,29.30
2019-02-05T15:21:19.041Z,29.50
2019-02-05T15:23:49.386Z,29.80
2019-02-05T15:26:19.837Z,29.90
2019-02-05T15:28:50.182Z,30.20
2019-02-05T15:31:20.605Z,31.00
2019-02-05T15:33:55.381Z,31.60
2019-02-05T15:36:31.231Z,32.00
2019-02-05T15:39:00.084Z,32.30
2019-02-05T15:41:31.422Z,32.70
2019-02-05T15:44:01.807Z,32.50
2019-02-05T15:46:33.021Z,32.80
2019-02-05T15:49:04.347Z,33.60
2019-02-05T15:51:34.817Z,34.30
2019-02-05T15:54:05.267Z,36.10
2019-02-05T15:56:36.707Z,36.70
2019-02-05T15:59:07.182Z,37.40
2019-02-05T16:01:37.573Z,38.10
2019-02-05T16:04:07.904Z,38.70
2019-02-05T16:06:38.363Z,39.30
2019-02-05T16:09:09.394Z,40.00
2019-02-05T16:11:39.803Z,40.40
2019-02-05T16:14:10.434Z,40.40
2019-02-05T16:16:40.876Z,42.20
2019-02-05T16:19:11.495Z,42.30
2019-02-05T16:21:41.877Z,42.70
2019-02-05T16:26:47.355Z,42.90
2019-02-05T16:29:17.809Z,44.00
2019-02-05T16:31:48.217Z,44.70
2019-02-05T16:34:18.557Z,44.70
2019-02-05T16:36:48.976Z,45.00
2019-02-05T16:39:19.351Z,45.20
2019-02-05T16:41:49.720Z,45.70
2019-02-05T16:44:20.043Z,45.90
2019-02-05T16:46:50.427Z,46.90
2019-02-05T16:49:22.519Z,47.00
2019-02-05T16:51:52.794Z,47.70
2019-02-05T16:54:23.433Z,48.40
2019-02-05T16:56:53.829Z,48.80
2019-02-05T16:59:24.186Z,48.80
2019-02-05T17:01:57.047Z,50.40
2019-02-05T17:04:26.873Z,50.10
2019-02-05T17:06:57.420Z,50.70
2019-02-05T17:09:27.766Z,50.50
2019-02-05T17:11:58.143Z,50.60
2019-02-05T17:14:28.678Z,51.90
2019-02-05T17:16:59.220Z,51.20
2019-02-05T17:19:31.839Z,51.60
2019-02-05T17:22:01.817Z,52.20
2019-02-05T17:24:32.125Z,51.80
2019-02-05T17:27:02.672Z,52.00
2019-02-05T17:29:34.067Z,52.80
2019-02-05T17:32:07.666Z,53.90
2019-02-05T17:34:36.697Z,53.40
2019-02-05T17:37:07.239Z,53.80
2019-02-05T17:39:37.563Z,54.30
2019-02-05T17:42:07.953Z,54.90
2019-02-05T17:44:38.293Z,55.10
2019-02-05T17:47:08.798Z,55.20
2019-02-05T17:49:39.439Z,56.00
2019-02-05T17:52:09.842Z,56.00
2019-02-05T17:54:40.177Z,56.00
2019-02-05T17:57:10.709Z,56.20
2019-02-05T17:59:41.081Z,56.70
2019-02-05T18:02:11.873Z,56.90
2019-02-05T18:04:42.199Z,56.60
2019-02-05T18:07:12.597Z,56.90
2019-02-05T18:09:42.929Z,57.20
2019-02-05T18:12:13.416Z,57.80
2019-02-05T18:14:43.815Z,61.00
2019-02-05T18:17:14.856Z,59.90
2019-02-05T18:19:46.331Z,60.70
2019-02-05T18:22:16.738Z,60.30
2019-02-05T18:24:47.094Z,60.90
2019-02-05T18:27:17.480Z,60.60
2019-02-05T18:29:48.109Z,60.70
2019-02-05T18:32:19.456Z,62.90
2019-02-05T18:34:50.213Z,61.90
2019-02-05T18:37:20.612Z,61.40
2019-02-05T18:39:50.985Z,61.50
2019-02-05T18:42:21.388Z,61.40
2019-02-05T18:44:51.715Z,61.70
2019-02-05T18:47:22.173Z,61.90
2019-02-05T18:49:52.545Z,62.70
2019-02-05T18:52:22.933Z,63.40
2019-02-05T18:54:53.278Z,63.30
2019-02-05T18:57:24.080Z,63.80
2019-02-05T18:59:54.806Z,64.90
2019-02-05T19:02:25.214Z,64.30
2019-02-05T19:04:55.542Z,64.80
2019-02-05T19:07:25.930Z,64.40
2019-02-05T19:09:56.276Z,64.80
2019-02-05T19:12:26.682Z,64.10
2019-02-05T19:14:57.016Z,65.00
2019-02-05T19:17:31.181Z,66.80
2019-02-05T19:20:01.527Z,66.30
2019-02-05T19:22:32.006Z,66.60
2019-02-05T19:25:17.539Z,68.00
2019-02-05T19:27:47.944Z,66.30
2019-02-05T19:30:20.823Z,67.40
2019-02-05T19:32:51.402Z,68.60
2019-02-05T19:35:22.026Z,70.20
2019-02-05T19:37:52.485Z,69.80
2019-02-05T19:40:22.816Z,70.00
2019-02-05T19:42:53.205Z,69.20
2019-02-05T19:45:45.445Z,69.40
2019-02-05T19:48:31.086Z,70.40
2019-02-05T19:51:01.816Z,69.70
2019-02-05T19:53:32.829Z,69.90
2019-02-05T19:56:03.261Z,74.90
2019-02-05T19:58:34.047Z,75.20
2019-02-05T20:01:04.588Z,74.60
2019-02-05T20:03:38.745Z,77.40
2019-02-05T20:06:06.962Z,74.70
2019-02-05T20:08:37.343Z,74.10
2019-02-05T20:11:07.737Z,73.40
2019-02-05T20:13:40.380Z,72.60
2019-02-05T20:16:12.841Z,72.50
2019-02-05T20:18:45.620Z,72.20
2019-02-05T20:21:15.979Z,72.10
2019-02-05T20:23:46.639Z,73.10
2019-02-05T20:26:17.613Z,72.80
2019-02-05T20:28:49.895Z,73.30
2019-02-05T20:31:20.449Z,74.00
2019-02-05T20:33:51.172Z,75.40
2019-02-05T20:36:21.953Z,74.60
2019-02-05T20:38:52.792Z,74.30
2019-02-05T20:41:24.923Z,74.00
2019-02-05T20:43:55.465Z,74.00
2019-02-05T20:46:25.913Z,74.30
2019-02-05T20:48:56.621Z,74.50
2019-02-05T20:51:27.053Z,74.70
2019-02-05T20:53:57.508Z,74.70
2019-02-05T20:56:30.947Z,74.60
2019-02-05T20:59:00.425Z,74.50
2019-02-05T21:01:30.852Z,74.70
2019-02-05T21:04:01.711Z,75.00
2019-02-05T21:06:32.114Z,75.00
2019-02-05T21:09:02.483Z,75.40
2019-02-05T21:11:34.082Z,75.40
2019-02-05T21:14:04.565Z,75.70
2019-02-05T21:16:34.996Z,76.20
2019-02-05T21:19:05.596Z,76.10
2019-02-05T21:21:35.950Z,75.70
2019-02-05T21:24:06.583Z,76.30
2019-02-05T21:26:36.948Z,79.80
2019-02-05T21:29:07.409Z,79.00
2019-02-05T21:31:37.864Z,78.00
2019-02-05T21:34:15.392Z,77.50
2019-02-05T21:36:42.058Z,77.40
2019-02-05T21:39:13.153Z,77.40
2019-02-05T21:41:43.533Z,78.20
2019-02-05T21:44:13.954Z,78.00
2019-02-05T21:46:44.310Z,78.10
2019-02-05T21:49:14.741Z,78.00
2019-02-05T21:51:45.124Z,77.80
2019-02-05T21:54:15.538Z,78.50
2019-02-05T21:56:45.878Z,78.60
2019-02-05T21:59:16.501Z,80.30
2019-02-05T22:01:47.965Z,79.20
2019-02-05T22:04:26.701Z,78.90
2019-02-05T22:06:50.366Z,78.80
2019-02-05T22:09:20.729Z,79.20
2019-02-05T22:11:51.084Z,79.80
2019-02-05T22:14:21.398Z,79.70
2019-02-05T22:16:51.759Z,79.70
2019-02-05T22:19:22.406Z,79.90
2019-02-05T22:21:52.745Z,80.00
2019-02-05T22:24:32.727Z,79.70
2019-02-05T22:27:04.643Z,79.70
2019-02-05T22:29:34.971Z,79.80
2019-02-05T22:32:05.959Z,81.30
2019-02-05T22:34:39.434Z,80.40
2019-02-05T22:37:08.343Z,80.20
2019-02-05T22:39:39.113Z,80.10
2019-02-05T22:42:09.443Z,80.80
2019-02-05T22:44:40.717Z,81.10
2019-02-05T22:47:11.074Z,81.50
2019-02-05T22:49:41.384Z,81.20
2019-02-05T22:52:11.764Z,81.30
2019-02-05T22:54:42.086Z,81.40
2019-02-05T22:57:12.493Z,82.00
2019-02-05T22:59:46.254Z,82.00
2019-02-05T23:02:18.749Z,82.00
2019-02-05T23:05:33.294Z,82.10
2019-02-05T23:08:03.945Z,81.80
2019-02-05T23:10:51.661Z,82.70
2019-02-05T23:13:22.061Z,83.00
2019-02-05T23:15:53.283Z,83.30
2019-02-05T23:18:23.907Z,83.70
2019-02-05T23:20:54.461Z,83.80
2019-02-05T23:23:24.952Z,84.30
2019-02-05T23:25:55.363Z,84.60
2019-02-05T23:28:25.801Z,84.20
2019-02-05T23:30:56.665Z,84.00
2019-02-05T23:33:27.134Z,84.10
2019-02-05T23:35:57.471Z,84.30
2019-02-05T23:38:30.107Z,83.90
2019-02-05T23:41:01.670Z,84.50
2019-02-05T23:43:33.555Z,85.10
2019-02-05T23:46:03.981Z,84.10
2019-02-05T23:48:34.373Z,84.40
2019-02-05T23:51:05.432Z,84.40
2019-02-05T23:53:35.955Z,84.30
2019-02-05T23:56:06.566Z,84.70
2019-02-05T23:58:37.141Z,84.90
